Time;durP1;ratioP1;P1;durP2;ratioP2;P2;SDS_P1;SDS_P2;PMS_P1;PMS_P2;Temp;Humidity;BMP_temperature;BMP_pressure;BME280_temperature;BME280_humidity;BME280_pressure;Samples;Min_cycle;Max_cycle;Signal;HPM_P1;HPM_P2
2022/02/07 00:01:58;;;;;;;6.63;1.25;;;;;;;7.72;59.49;100677.97;4990278;28;120465;-77
2022/02/07 00:04:30;;;;;;;6.18;1.30;;;;;;;7.70;59.34;100685.06;5007000;28;119624;-77
2022/02/07 00:06:57;;;;;;;8.55;1.45;;;;;;;7.70;59.38;100695.59;4988042;28;124927;-77
2022/02/07 00:09:24;;;;;;;3.70;1.25;;;;;;;7.68;59.20;100702.72;4988807;28;123869;-76
2022/02/07 00:11:52;;;;;;;7.50;1.60;;;;;;;7.68;59.16;100715.88;4988648;28;118294;-78
2022/02/07 00:14:19;;;;;;;8.27;1.70;;;;;;;7.66;59.61;100723.00;4987725;28;118399;-78
2022/02/07 00:16:46;;;;;;;9.90;1.50;;;;;;;7.66;59.34;100720.34;4987617;28;123119;-78
2022/02/07 00:19:21;;;;;;;8.73;1.50;;;;;;;7.65;58.96;100731.78;4971592;28;123182;-77
2022/02/07 00:21:49;;;;;;;8.60;1.38;;;;;;;7.65;59.22;100730.03;4987531;28;118593;-77
2022/02/07 00:24:17;;;;;;;7.68;1.35;;;;;;;7.67;59.37;100737.91;4987442;28;119075;-78
2022/02/07 00:26:44;;;;;;;12.68;1.73;;;;;;;7.65;59.69;100739.72;4986715;28;123887;-78
2022/02/07 00:29:11;;;;;;;12.00;1.73;;;;;;;7.66;59.67;100752.00;5003525;28;122577;-78
2022/02/07 00:31:41;;;;;;;9.40;1.40;;;;;;;7.68;59.59;100744.88;4986323;28;119574;-78
2022/02/07 00:34:09;;;;;;;7.68;1.42;;;;;;;7.70;59.75;100764.13;4988427;28;118702;-78
2022/02/07 00:36:36;;;;;;;6.40;1.38;;;;;;;7.72;59.69;100773.75;5003658;28;123852;-78
2022/02/07 00:39:14;;;;;;;10.02;1.52;;;;;;;7.74;59.66;100778.94;4987883;28;123934;-77
2022/02/07 00:41:49;;;;;;;10.95;1.50;;;;;;;7.76;59.33;100795.56;4986490;28;118813;-77
2022/02/07 00:44:19;;;;;;;9.68;1.52;;;;;;;7.78;59.42;100799.03;4986590;28;118051;-78
2022/02/07 00:46:57;;;;;;;11.20;2.10;;;;;;;7.79;59.30;100811.28;4986732;28;122922;-78
2022/02/07 00:49:26;;;;;;;7.72;1.48;;;;;;;7.79;59.42;100812.13;4987441;28;124008;-78
2022/02/07 00:51:54;;;;;;;10.25;1.33;;;;;;;7.81;59.28;100830.53;4985944;28;118810;-78
2022/02/07 00:54:21;;;;;;;12.20;1.70;;;;;;;7.83;59.38;100839.25;4970453;28;119260;-78
2022/02/07 00:56:50;;;;;;;12.52;1.50;;;;;;;7.85;59.41;100853.25;4970016;28;124294;-78
2022/02/07 00:59:17;;;;;;;11.00;1.63;;;;;;;7.86;59.48;100855.00;4986350;28;123704;-78
2022/02/07 01:01:45;;;;;;;10.77;1.58;;;;;;;7.89;59.16;100854.91;4986555;28;119002;-78
2022/02/07 01:04:13;;;;;;;10.88;1.65;;;;;;;7.90;59.22;100872.44;4987220;28;118731;-78
2022/02/07 01:07:06;;;;;;;8.02;1.88;;;;;;;7.92;59.01;100865.31;4981241;28;123960;-78
2022/02/07 01:09:50;;;;;;;7.93;1.05;;;;;;;7.93;58.87;100877.59;4987096;28;123104;-79
2022/02/07 01:49:27;;;;;;;4.13;0.63;;;;;;;6.88;59.18;101052.91;4985810;28;119607;-78
2022/02/07 01:52:06;;;;;;;2.58;0.60;;;;;;;6.80;59.24;101056.59;4987679;28;124040;-77
2022/02/07 01:54:39;;;;;;;1.83;0.60;;;;;;;6.75;59.22;101063.75;4987635;28;124679;-78
2022/02/07 01:57:14;;;;;;;2.28;0.70;;;;;;;6.73;59.04;101070.81;4987330;28;119701;-78
2022/02/07 01:59:44;;;;;;;2.78;0.80;;;;;;;6.69;59.09;101074.44;4987670;28;118325;-79
2022/02/07 02:02:13;;;;;;;3.83;0.80;;;;;;;6.68;59.17;101083.22;4986620;28;124089;-78
2022/02/07 02:04:41;;;;;;;2.03;0.80;;;;;;;6.65;59.21;101091.22;4987436;28;123994;-78
2022/02/07 02:07:12;;;;;;;3.50;0.85;;;;;;;6.63;58.99;101103.56;4986822;28;118558;-78
2022/02/07 02:09:41;;;;;;;4.88;0.88;;;;;;;6.61;59.31;101116.75;4972020;28;118959;-78
2022/02/07 02:12:13;;;;;;;3.45;0.60;;;;;;;6.59;59.39;101130.81;4990397;28;123819;-79
2022/02/07 02:15:01;;;;;;;2.08;0.70;;;;;;;6.58;59.33;101139.63;4995409;28;123248;-77
2022/02/07 02:35:06;;;;;;;6.90;0.98;;;;;;;6.57;59.85;101195.78;4988885;28;123466;-79
2022/02/07 02:37:20;;;;;;;5.93;0.98;;;;;;;6.60;59.89;101207.09;4988667;28;123127;-78
2022/02/07 02:48:05;;;;;;;3.45;0.90;;;;;;;6.77;59.93;101224.28;4987851;28;125468;-78
2022/02/07 02:50:35;;;;;;;9.30;1.30;;;;;;;6.82;59.84;101239.06;4988970;28;118560;-79
2022/02/07 02:53:10;;;;;;;7.07;1.35;;;;;;;6.86;59.70;101242.50;4971808;28;118795;-79
2022/02/07 02:55:41;;;;;;;5.40;1.05;;;;;;;6.91;59.60;101247.66;4988216;28;123894;-79
2022/02/07 02:58:11;;;;;;;6.15;1.00;;;;;;;6.95;59.80;101249.31;5005475;28;123170;-78
2022/02/07 03:00:40;;;;;;;8.50;1.60;;;;;;;6.98;59.56;101265.03;4988337;28;119798;-79
2022/02/07 03:03:18;;;;;;;8.13;1.65;;;;;;;7.00;59.32;101268.50;4987190;28;118150;-79
2022/02/07 03:05:46;;;;;;;6.25;1.00;;;;;;;7.03;59.25;101276.34;4978483;28;123487;-78
2022/02/07 03:08:15;;;;;;;5.63;1.08;;;;;;;7.05;59.48;101292.97;4983830;28;123884;-79
2022/02/07 03:18:37;;;;;;;5.72;1.10;;;;;;;7.07;59.37;101316.66;4967821;28;123866;-77
2022/02/07 03:21:05;;;;;;;7.82;1.45;;;;;;;7.07;59.30;101330.69;4967664;28;119766;-79
2022/02/07 03:23:33;;;;;;;8.65;1.02;;;;;;;7.08;59.03;101329.75;4968825;28;119393;-79
2022/02/07 03:26:01;;;;;;;7.63;1.42;;;;;;;7.08;59.26;101335.03;4967946;28;123842;-79
2022/02/07 03:28:29;;;;;;;9.02;1.38;;;;;;;7.11;59.26;101340.22;4969264;28;123829;-78
2022/02/07 03:30:57;;;;;;;8.75;1.17;;;;;;;7.14;59.38;101342.81;4950610;28;119657;-79
2022/02/07 03:33:25;;;;;;;7.70;1.42;;;;;;;7.14;59.12;101350.72;4951621;28;119307;-78
2022/02/07 03:35:54;;;;;;;9.07;1.38;;;;;;;7.18;59.11;101356.78;4967856;28;123527;-79
2022/02/07 03:38:24;;;;;;;8.80;1.30;;;;;;;7.19;59.09;101364.63;4967352;28;123803;-79
2022/02/07 03:40:53;;;;;;;9.18;1.23;;;;;;;7.22;59.13;101372.47;4967363;28;118491;-79
2022/02/07 03:43:22;;;;;;;8.50;1.58;;;;;;;7.25;59.35;101376.78;4967831;28;118754;-79
2022/02/07 03:45:51;;;;;;;5.50;1.45;;;;;;;7.27;59.36;101382.03;4967778;28;123922;-79
2022/02/07 03:48:19;;;;;;;8.63;1.40;;;;;;;7.30;59.24;101392.50;4968194;28;123646;-79
2022/02/07 03:50:46;;;;;;;10.93;1.35;;;;;;;7.32;59.25;101402.09;4971760;28;119611;-78
2022/02/07 03:53:16;;;;;;;7.82;1.33;;;;;;;7.34;59.39;101399.44;4990089;28;118145;-77
2022/02/07 03:55:54;;;;;;;9.90;1.55;;;;;;;7.37;59.10;101409.91;4989379;28;122714;-77
2022/02/07 03:58:22;;;;;;;7.97;1.40;;;;;;;7.39;58.97;101413.38;4974658;28;123436;-79
2022/02/07 04:00:54;;;;;;;7.22;1.23;;;;;;;7.40;59.07;101420.38;4988273;28;119662;-79
2022/02/07 04:03:34;;;;;;;10.38;1.58;;;;;;;7.42;58.65;101439.66;4955769;28;119014;-78
2022/02/07 04:06:11;;;;;;;7.20;1.40;;;;;;;7.44;58.78;101456.31;4953476;28;122402;-79
2022/02/07 04:08:42;;;;;;;9.30;1.30;;;;;;;7.46;58.97;101459.78;4969747;28;124297;-79
2022/02/07 04:11:26;;;;;;;9.82;1.40;;;;;;;7.48;59.03;101460.63;4969503;28;117969;-79
2022/02/07 04:13:57;;;;;;;10.73;1.70;;;;;;;7.49;58.81;101472.88;4954150;28;119259;-79
2022/02/07 04:16:28;;;;;;;9.18;1.70;;;;;;;7.53;58.84;101487.72;4952955;28;123630;-79
2022/02/07 04:19:16;;;;;;;9.20;1.40;;;;;;;7.55;58.94;101493.84;4969161;28;124085;-78
2022/02/07 04:21:46;;;;;;;9.25;1.58;;;;;;;7.60;58.90;101507.78;4968518;28;119707;-79
2022/02/07 04:24:23;;;;;;;10.10;1.70;;;;;;;7.65;58.73;101498.91;4969346;28;119046;-79
2022/02/07 04:26:59;;;;;;;9.32;1.45;;;;;;;7.70;58.87;101510.22;4954122;28;123960;-79
2022/02/07 04:29:27;;;;;;;6.40;1.30;;;;;;;7.74;58.66;101506.59;4952239;28;123685;-79
2022/02/07 04:31:55;;;;;;;9.30;1.65;;;;;;;7.78;58.69;101510.94;4967872;28;119004;-79
2022/02/07 04:34:22;;;;;;;10.32;1.75;;;;;;;7.81;58.79;101521.38;4985009;28;118943;-79
2022/02/07 04:36:55;;;;;;;10.70;2.00;;;;;;;7.84;58.45;101529.25;4985353;28;124748;-79
2022/02/07 04:39:23;;;;;;;8.05;1.30;;;;;;;7.87;58.53;101523.88;4968463;28;123233;-79
2022/02/07 04:41:55;;;;;;;6.47;1.50;;;;;;;7.89;58.57;101535.28;4984573;28;118660;-79
2022/02/07 04:44:35;;;;;;;9.30;1.75;;;;;;;7.92;58.46;101551.03;4984777;28;118980;-79
2022/02/07 04:47:30;;;;;;;11.30;1.60;;;;;;;7.96;58.26;101557.97;4967937;28;123938;-79
2022/02/07 04:53:10;;;;;;;11.82;2.08;;;;;;;8.04;58.25;101575.38;4970543;28;118558;-79
2022/02/07 04:55:40;;;;;;;11.43;1.58;;;;;;;8.08;58.52;101574.41;4969438;28;119479;-79
2022/02/07 04:58:35;;;;;;;12.23;1.58;;;;;;;8.12;58.46;101584.00;4969673;28;123392;-79
2022/02/07 05:03:35;;;;;;;7.85;1.40;;;;;;;8.17;58.48;101597.94;4969652;28;119165;-79
2022/02/07 05:14:25;;;;;;;11.98;1.58;;;;;;;8.30;58.45;101654.81;4968290;28;120192;-79
2022/02/07 05:16:55;;;;;;;10.18;1.60;;;;;;;8.32;58.27;101660.94;4952762;28;119154;-79
2022/02/07 05:19:30;;;;;;;7.72;1.38;;;;;;;8.33;58.24;101681.16;4953134;28;123452;-78
2022/02/07 05:22:02;;;;;;;11.63;1.95;;;;;;;8.32;58.43;101682.03;4968157;28;123482;-79
2022/02/07 05:24:49;;;;;;;8.50;1.63;;;;;;;8.30;58.35;101673.28;4969367;28;119528;-79
2022/02/07 05:27:32;;;;;;;6.20;1.48;;;;;;;8.29;58.54;101676.00;4953743;28;118374;-79
2022/02/07 05:30:17;;;;;;;8.77;1.95;;;;;;;8.27;58.37;101683.94;4968168;28;124313;-79
2022/02/07 05:33:05;;;;;;;12.25;1.70;;;;;;;8.28;58.54;101685.66;4968047;28;123412;-78
2022/02/07 05:35:58;;;;;;;11.32;2.05;;;;;;;8.26;58.40;101698.03;4952004;28;119742;-79
2022/02/07 05:38:49;;;;;;;9.98;1.55;;;;;;;8.27;58.26;101697.13;4970562;28;118327;-79
2022/02/07 05:41:25;;;;;;;10.00;1.70;;;;;;;8.28;58.31;101701.50;4982441;28;122514;-78
2022/02/07 05:44:15;;;;;;;6.43;1.30;;;;;;;8.27;58.54;101705.03;4962610;28;124197;-80
2022/02/07 05:46:48;;;;;;;9.50;1.50;;;;;;;8.30;58.53;101720.78;4982027;28;119643;-79
2022/02/07 05:49:35;;;;;;;7.43;1.33;;;;;;;8.30;58.36;101726.06;4937542;28;119299;-79
2022/02/07 05:52:19;;;;;;;13.65;1.85;;;;;;;8.31;58.53;101733.09;4971144;28;122537;-79
2022/02/07 05:55:18;;;;;;;7.93;1.95;;;;;;;8.30;58.28;101736.63;4968225;28;123485;-79
2022/02/07 05:58:02;;;;;;;9.32;1.70;;;;;;;8.29;58.23;101745.47;4967358;28;119553;-79
2022/02/07 06:00:56;;;;;;;14.50;1.75;;;;;;;8.27;58.25;101749.03;4967507;28;118718;-79
2022/02/07 06:03:24;;;;;;;7.40;1.55;;;;;;;8.25;58.66;101759.63;4967351;28;123640;-79
2022/02/07 06:06:03;;;;;;;9.15;1.52;;;;;;;8.24;58.36;101757.88;4966933;28;122574;-79
2022/02/07 06:08:32;;;;;;;7.93;1.45;;;;;;;8.23;58.22;101761.44;4967693;28;119306;-79
2022/02/07 06:11:01;;;;;;;6.28;1.55;;;;;;;8.23;58.53;101760.53;4967197;28;120130;-79
2022/02/07 06:13:30;;;;;;;9.43;1.95;;;;;;;8.22;58.36;101775.53;4968143;28;124595;-79
2022/02/07 06:16:04;;;;;;;11.48;1.58;;;;;;;8.21;58.41;101779.03;4952588;28;123969;-79
2022/02/07 06:18:32;;;;;;;10.18;2.20;;;;;;;8.20;58.22;101782.59;4950992;28;118744;-78
2022/02/07 06:21:04;;;;;;;9.85;2.03;;;;;;;8.19;58.65;101780.84;4967809;28;119031;-79
2022/02/07 06:23:33;;;;;;;9.63;1.40;;;;;;;8.19;58.62;101791.41;4967622;28;123394;-79
2022/02/07 06:26:08;;;;;;;12.48;2.15;;;;;;;8.18;58.31;101789.69;4969501;28;123339;-79
2022/02/07 06:28:35;;;;;;;13.85;1.75;;;;;;;8.18;58.41;101805.50;4967501;28;119247;-80
2022/02/07 06:31:06;;;;;;;19.33;2.00;;;;;;;8.16;58.48;101812.59;4967020;28;118554;-79
2022/02/07 06:33:35;;;;;;;8.25;1.70;;;;;;;8.16;58.70;101824.00;4966396;28;123681;-79
2022/02/07 06:36:05;;;;;;;12.43;1.55;;;;;;;8.15;58.56;101822.25;4967032;28;123541;-79
2022/02/07 06:38:32;;;;;;;11.95;1.52;;;;;;;8.16;58.29;101836.34;4983126;28;117464;-79
2022/02/07 06:41:00;;;;;;;17.40;1.92;;;;;;;8.15;58.25;101842.50;4983350;28;118463;-79
2022/02/07 06:43:29;;;;;;;12.23;1.35;;;;;;;8.14;58.45;101844.28;4951078;28;124310;-79
2022/02/07 06:45:58;;;;;;;7.28;1.30;;;;;;;8.15;58.47;101851.28;4951126;28;123138;-79
2022/02/07 06:48:27;;;;;;;15.80;1.98;;;;;;;8.14;58.67;101856.63;4967343;28;118614;-79
2022/02/07 06:50:54;;;;;;;11.48;1.80;;;;;;;8.13;58.17;101860.13;4967378;28;119538;-79
2022/02/07 06:53:22;;;;;;;9.95;1.58;;;;;;;8.13;58.50;101865.41;4983147;28;122127;-79
2022/02/07 06:55:52;;;;;;;10.50;1.90;;;;;;;8.12;58.77;101874.25;4983805;28;123745;-79
2022/02/07 06:58:19;;;;;;;11.23;1.80;;;;;;;8.13;58.45;101875.97;4984562;28;119728;-79
2022/02/07 07:00:46;;;;;;;12.55;2.00;;;;;;;8.12;58.76;101890.06;4969500;28;120248;-79
2022/02/07 07:03:19;;;;;;;9.10;1.73;;;;;;;8.11;58.61;101894.47;4970205;28;123421;-79
2022/02/07 07:05:50;;;;;;;8.70;1.50;;;;;;;8.11;58.56;101898.88;4969671;28;124184;-79
2022/02/07 07:08:21;;;;;;;8.90;1.60;;;;;;;8.10;58.73;101902.41;4970308;28;118217;-79
2022/02/07 07:10:49;;;;;;;11.70;1.75;;;;;;;8.10;58.49;101902.41;4969711;28;117811;-79
2022/02/07 07:13:24;;;;;;;7.53;1.42;;;;;;;8.11;58.52;101906.78;4970253;28;123521;-80
2022/02/07 07:15:58;;;;;;;9.57;1.70;;;;;;;8.09;58.51;101911.22;4970250;28;122804;-78
2022/02/07 07:18:26;;;;;;;;;;;;;;;8.07;58.82;101913.03;4954929;28;119367;-79
2022/02/07 07:20:56;;;;;;;12.38;1.80;;;;;;;8.09;58.65;101916.50;4969777;28;119307;-80
2022/02/07 07:23:25;;;;;;;10.13;1.52;;;;;;;8.08;58.70;101920.03;4969718;28;123732;-79
2022/02/07 07:25:56;;;;;;;8.82;2.00;;;;;;;8.06;58.39;101924.47;4970536;28;123318;-79
2022/02/07 07:28:26;;;;;;;12.57;1.50;;;;;;;8.06;58.41;101927.09;4969697;28;118647;-79
2022/02/07 07:30:57;;;;;;;11.30;1.80;;;;;;;8.05;58.77;101941.22;4970116;28;118249;-79
2022/02/07 07:33:32;;;;;;;14.68;2.17;;;;;;;8.05;58.47;101946.47;4955262;28;123479;-79
2022/02/07 07:36:02;;;;;;;8.10;1.45;;;;;;;8.04;58.46;101958.78;4969799;28;123015;-79
2022/02/07 07:38:30;;;;;;;11.98;1.55;;;;;;;8.04;58.74;101981.66;4953185;28;119385;-79
2022/02/07 07:41:01;;;;;;;9.50;1.55;;;;;;;8.04;58.68;101997.50;4969318;28;119137;-79
2022/02/07 07:43:37;;;;;;;10.05;1.90;;;;;;;8.03;58.86;102006.31;4967726;28;124241;-79
2022/02/07 07:46:34;;;;;;;9.15;1.50;;;;;;;8.02;58.47;102015.97;4899466;28;124462;-79
2022/02/07 07:49:33;;;;;;;9.32;2.10;;;;;;;8.01;58.53;102029.22;4972221;28;119836;-79
2022/02/07 07:52:30;;;;;;;8.85;1.80;;;;;;;7.99;58.81;102038.00;4951233;28;120002;-79
2022/02/07 08:03:19;;;;;;;11.05;1.50;;;;;;;7.96;58.77;102061.78;4972526;28;116725;-79
2022/02/07 08:05:54;;;;;;;9.48;1.90;;;;;;;7.96;58.73;102069.69;4973263;28;124415;-79
2022/02/07 08:08:36;;;;;;;10.85;1.85;;;;;;;7.97;58.80;102078.50;4973372;28;122665;-78
2022/02/07 08:11:07;;;;;;;8.90;1.77;;;;;;;7.98;58.94;102089.00;4973202;28;119484;-79
2022/02/07 08:13:41;;;;;;;11.25;1.67;;;;;;;8.02;59.26;102099.53;4971144;28;118044;-79
2022/02/07 08:16:14;;;;;;;;;;;;;;;8.05;59.17;102104.78;4971458;28;123566;-78
2022/02/07 08:18:41;;;;;;;15.18;1.90;;;;;;;8.09;59.30;102117.03;4972998;28;124287;-80
2022/02/07 08:21:08;;;;;;;14.73;1.85;;;;;;;8.10;59.20;102119.66;4988456;28;119235;-79
2022/02/07 08:23:36;;;;;;;10.50;1.83;;;;;;;8.15;59.53;102127.50;4972658;28;119392;-79
2022/02/07 08:26:03;;;;;;;10.48;1.80;;;;;;;8.21;59.55;102137.09;4954287;28;123796;-79
2022/02/07 08:28:43;;;;;;;12.65;1.80;;;;;;;8.26;59.08;102130.84;4954903;28;123826;-79
2022/02/07 08:31:11;;;;;;;12.57;2.17;;;;;;;8.34;59.71;102128.09;4969877;28;118823;-79
2022/02/07 08:33:39;;;;;;;11.45;1.98;;;;;;;8.41;59.18;102118.31;4970776;28;117681;-79
2022/02/07 08:36:06;;;;;;;11.73;1.88;;;;;;;8.49;59.21;102116.47;4970354;28;124353;-79
2022/02/07 08:38:33;;;;;;;9.57;2.10;;;;;;;8.56;59.71;102118.97;4971386;28;123024;-79
2022/02/07 08:41:01;;;;;;;16.02;2.15;;;;;;;8.64;59.38;102121.50;4970586;28;119483;-79
2022/02/07 08:43:28;;;;;;;9.65;1.85;;;;;;;8.71;59.50;102133.69;4969538;28;120722;-79
2022/02/07 08:45:55;;;;;;;12.18;2.78;;;;;;;8.79;59.16;102132.72;4986160;28;123177;-79
2022/02/07 08:48:24;;;;;;;11.60;2.00;;;;;;;8.85;59.32;102137.88;4968924;28;122878;-79
2022/02/07 08:50:54;;;;;;;9.60;1.60;;;;;;;8.89;59.20;102147.50;4952861;28;118161;-79
2022/02/07 08:53:24;;;;;;;11.98;1.85;;;;;;;8.94;59.36;102145.66;4968944;28;118091;-79
2022/02/07 08:55:52;;;;;;;12.60;2.00;;;;;;;8.99;58.82;102143.81;4969620;28;123602;-79
2022/02/07 08:58:23;;;;;;;12.90;2.25;;;;;;;9.02;58.93;102143.72;4985876;28;122881;-79
2022/02/07 09:00:59;;;;;;;15.50;2.13;;;;;;;9.05;58.68;102138.41;4952171;28;118740;-79
2022/02/07 09:06:28;;;;;;;15.90;2.20;;;;;;;9.14;58.90;102148.81;4969212;28;123755;-80
2022/02/07 09:11:57;;;;;;;11.95;1.80;;;;;;;9.22;58.82;102182.19;4942536;28;118749;-80
2022/02/07 09:14:30;;;;;;;16.00;2.45;;;;;;;9.26;58.81;102189.16;4969564;28;118276;-79
2022/02/07 09:16:58;;;;;;;8.80;1.60;;;;;;;9.31;58.73;102197.88;4968152;28;123693;-78
2022/02/07 09:19:25;;;;;;;9.43;1.60;;;;;;;9.34;58.88;102203.09;4968844;28;123628;-79
2022/02/07 09:21:52;;;;;;;13.68;1.80;;;;;;;9.39;58.85;102205.66;4968962;28;118595;-79
2022/02/07 09:24:19;;;;;;;7.85;2.00;;;;;;;9.44;58.70;102220.56;4968985;28;118227;-79
2022/02/07 09:26:47;;;;;;;10.13;1.58;;;;;;;9.50;58.92;102223.06;4969682;28;123981;-79
2022/02/07 09:29:14;;;;;;;9.80;2.03;;;;;;;9.56;59.09;102222.09;4967575;28;122008;-79
2022/02/07 09:31:41;;;;;;;13.85;1.80;;;;;;;9.62;58.65;102226.41;4968180;28;119660;-78
2022/02/07 09:34:09;;;;;;;11.57;2.15;;;;;;;9.67;58.79;102221.91;4953001;28;119353;-79
2022/02/07 09:36:36;;;;;;;10.88;1.80;;;;;;;9.73;58.71;102232.34;4970876;28;123646;-80
2022/02/07 09:39:05;;;;;;;13.07;1.80;;;;;;;9.79;58.52;102234.88;4968708;28;123163;-79
2022/02/07 09:41:34;;;;;;;15.45;1.90;;;;;;;9.85;58.61;102232.13;4951694;28;118640;-80
2022/02/07 09:44:03;;;;;;;12.38;1.60;;;;;;;9.91;58.68;102242.59;4968414;28;118860;-79
2022/02/07 09:46:45;;;;;;;13.93;2.20;;;;;;;9.99;58.38;102238.91;4968580;28;123618;-79
2022/02/07 09:49:15;;;;;;;11.00;2.00;;;;;;;10.04;58.34;102248.50;4968072;28;124339;-80
2022/02/07 09:51:45;;;;;;;11.05;1.90;;;;;;;10.10;58.44;102258.09;4970170;28;118534;-80
2022/02/07 09:54:18;;;;;;;15.38;2.13;;;;;;;10.14;58.22;102265.06;4968676;28;120018;-79
2022/02/07 09:56:48;;;;;;;10.77;1.80;;;;;;;10.20;58.35;102275.53;4984228;28;123614;-79
2022/02/07 09:59:16;;;;;;;13.00;2.13;;;;;;;10.28;58.12;102278.91;4968747;28;123577;-79
2022/02/07 10:01:45;;;;;;;10.15;1.90;;;;;;;10.33;58.14;102282.34;4969329;28;118618;-79
2022/02/07 10:04:38;;;;;;;13.85;2.08;;;;;;;10.39;57.68;102299.03;4968090;28;118334;-79
2022/02/07 10:07:21;;;;;;;11.07;1.85;;;;;;;10.48;58.03;102312.06;4969232;28;124668;-79
2022/02/07 10:09:57;;;;;;;10.77;1.83;;;;;;;10.56;58.12;102312.78;4967891;28;123777;-79
2022/02/07 10:12:32;;;;;;;8.63;1.55;;;;;;;10.62;57.82;102331.19;4967985;28;118475;-79
2022/02/07 10:17:50;;;;;;;7.97;1.52;;;;;;;10.77;57.57;102334.41;4984409;28;124109;-79
2022/02/07 10:34:31;;;;;;;10.88;1.83;;;;;;;10.87;57.58;102346.59;4968725;28;120204;-79
2022/02/07 10:34:46;;;;;;;8.93;1.83;;;;;;;10.89;57.32;102353.59;4971931;28;118608;-79
2022/02/07 10:37:50;;;;;;;11.55;1.90;;;;;;;10.91;57.41;102369.47;4955123;28;118100;-79
2022/02/07 10:40:36;;;;;;;13.43;2.33;;;;;;;10.96;57.60;102362.25;4970723;28;123048;-79
2022/02/07 10:46:08;;;;;;;11.70;1.98;;;;;;;11.04;57.51;102365.63;4972647;28;118768;-80
2022/02/07 10:48:43;;;;;;;12.07;2.00;;;;;;;11.06;57.57;102374.41;4972952;28;118983;-79
2022/02/07 10:51:15;;;;;;;13.17;2.00;;;;;;;11.12;57.48;102388.44;4986833;28;123132;-79
2022/02/07 10:53:46;;;;;;;9.70;1.45;;;;;;;11.15;57.52;102393.66;4971685;28;124674;-80
2022/02/07 10:56:19;;;;;;;13.32;1.90;;;;;;;11.18;57.45;102388.31;4988752;28;118404;-79
2022/02/07 10:58:54;;;;;;;10.88;2.05;;;;;;;11.23;57.48;102391.72;4971381;28;117604;-80
2022/02/07 11:03:58;;;;;;;14.88;1.90;;;;;;;11.39;57.72;102387.78;4971703;28;123092;-79
2022/02/07 11:06:33;;;;;;;9.05;1.73;;;;;;;11.48;57.45;102398.19;4972172;28;119232;-79
2022/02/07 11:14:40;;;;;;;13.43;1.88;;;;;;;11.54;56.90;102406.91;4985884;28;123912;-79
2022/02/07 11:27:54;;;;;;;8.20;1.38;;;;;;;11.58;57.06;102408.59;4970404;28;120016;-79
2022/02/07 11:30:53;;;;;;;10.73;1.55;;;;;;;11.61;56.83;102408.53;4965904;28;118956;-79
2022/02/07 11:33:40;;;;;;;10.80;2.03;;;;;;;11.62;56.67;102404.94;4973186;28;124109;-79
2022/02/07 11:36:20;;;;;;;11.00;1.55;;;;;;;11.61;56.82;102419.13;4972578;28;123092;-79
2022/02/07 11:38:58;;;;;;;9.00;1.52;;;;;;;11.59;56.53;102418.31;4971214;28;118805;-79
2022/02/07 11:41:25;;;;;;;10.15;1.80;;;;;;;11.59;56.67;102416.50;4986715;28;116944;-80
2022/02/07 11:43:52;;;;;;;9.02;1.60;;;;;;;11.58;56.28;102420.06;4971683;28;123373;-79
2022/02/07 11:46:22;;;;;;;7.85;1.58;;;;;;;11.56;56.39;102426.31;4970332;28;123478;-79
2022/02/07 11:48:51;;;;;;;12.90;2.38;;;;;;;11.57;56.36;102428.09;4986146;28;119381;-79
2022/02/07 11:51:20;;;;;;;12.85;1.75;;;;;;;11.57;56.35;102439.56;4969767;28;118160;-79
2022/02/07 11:53:50;;;;;;;10.35;1.60;;;;;;;11.57;56.30;102433.41;4969280;28;123068;-80
2022/02/07 11:56:40;;;;;;;9.35;1.58;;;;;;;11.55;56.16;102430.78;4970909;28;123848;-80
2022/02/07 12:02:05;;;;;;;7.78;1.58;;;;;;;11.52;56.14;102430.81;4971059;28;118396;-80
2022/02/07 12:04:43;;;;;;;11.25;2.10;;;;;;;11.50;56.23;102438.81;4987126;28;123874;-80
2022/02/07 12:07:29;;;;;;;9.57;1.67;;;;;;;11.49;56.06;102445.06;4970260;28;123802;-79
2022/02/07 12:10:02;;;;;;;11.10;1.80;;;;;;;11.48;55.82;102445.94;4986215;28;120268;-80
2022/02/07 12:12:49;;;;;;;10.60;1.40;;;;;;;11.46;55.64;102437.16;4970757;28;119890;-80
2022/02/07 12:15:36;;;;;;;9.45;1.70;;;;;;;11.44;55.66;102438.97;4955313;28;122797;-80
2022/02/07 12:18:12;;;;;;;5.72;1.42;;;;;;;11.41;55.67;102439.03;4970095;28;122227;-79
2022/02/07 12:20:43;;;;;;;9.52;1.65;;;;;;;11.42;55.68;102434.63;4968630;28;119176;-80
2022/02/07 12:23:11;;;;;;;9.68;1.48;;;;;;;11.38;55.55;102433.81;4987766;28;119366;-79
2022/02/07 12:25:42;;;;;;;8.23;1.60;;;;;;;11.37;55.54;102437.34;4970537;28;123009;-79
2022/02/07 12:31:19;;;;;;;6.93;1.20;;;;;;;11.37;55.11;102453.28;4970860;28;119536;-79
2022/02/07 12:34:07;;;;;;;8.15;1.30;;;;;;;11.33;55.08;102456.91;4987458;28;117238;-80
2022/02/07 12:36:36;;;;;;;9.13;1.48;;;;;;;11.29;54.81;102465.84;4969968;28;124759;-80
2022/02/07 12:39:15;;;;;;;8.88;1.48;;;;;;;11.25;55.06;102454.44;4970800;28;124317;-80
2022/02/07 12:41:44;;;;;;;11.73;1.38;;;;;;;11.23;54.77;102450.94;4970693;28;119886;-80
2022/02/07 12:44:18;;;;;;;11.75;1.73;;;;;;;11.23;55.04;102450.06;4970312;28;118392;-80
2022/02/07 12:46:47;;;;;;;8.63;1.10;;;;;;;11.28;55.13;102454.38;4954160;28;122209;-80
2022/02/07 12:49:21;;;;;;;6.68;1.40;;;;;;;11.35;55.05;102449.78;4986998;28;123820;-80
2022/02/07 12:51:48;;;;;;;7.40;1.30;;;;;;;11.44;55.13;102465.50;4954132;28;117889;-80
2022/02/07 12:54:20;;;;;;;4.35;1.23;;;;;;;11.52;54.53;102472.41;4970137;28;118864;-80
2022/02/07 12:56:49;;;;;;;8.38;2.13;;;;;;;11.56;54.67;102474.94;4986041;28;123613;-80
2022/02/07 12:59:16;;;;;;;7.00;1.35;;;;;;;11.61;54.20;102477.53;4970955;28;124683;-80
2022/02/07 13:01:45;;;;;;;6.20;1.15;;;;;;;11.64;54.42;102480.09;4970808;28;120696;-80
2022/02/07 13:04:22;;;;;;;9.05;1.23;;;;;;;11.64;54.06;102488.03;4984238;28;120629;-80
2022/02/07 13:06:55;;;;;;;8.30;1.27;;;;;;;11.64;53.90;102488.03;4986204;28;124223;-80
2022/02/07 13:09:34;;;;;;;9.23;1.40;;;;;;;11.62;53.85;102479.25;4986592;28;123346;-80
2022/02/07 13:14:42;;;;;;;5.07;1.00;;;;;;;11.58;53.84;102490.84;4970183;28;118696;-79
2022/02/07 13:17:11;;;;;;;9.73;1.38;;;;;;;11.55;53.54;102494.47;4969971;28;124418;-80
2022/02/07 13:19:43;;;;;;;7.80;1.08;;;;;;;11.55;53.35;102498.91;4988417;28;124026;-80
2022/02/07 13:22:15;;;;;;;7.20;1.33;;;;;;;11.54;53.57;102505.09;4971770;28;117506;-80
2022/02/07 13:24:44;;;;;;;6.35;1.20;;;;;;;11.53;53.73;102506.00;4973027;28;118669;-80
2022/02/07 13:27:14;;;;;;;7.45;1.30;;;;;;;11.55;53.63;102509.50;4954231;28;123460;-80
2022/02/07 13:29:47;;;;;;;6.18;1.10;;;;;;;11.55;53.61;102521.00;4970809;28;124211;-80
2022/02/07 13:32:17;;;;;;;7.25;1.10;;;;;;;11.58;53.68;102520.03;4969430;28;119006;-80
2022/02/07 13:34:47;;;;;;;4.65;1.10;;;;;;;11.61;53.73;102515.53;4986722;28;118669;-79
2022/02/07 13:37:24;;;;;;;7.75;0.95;;;;;;;11.68;53.66;102516.28;4969536;28;124450;-79
2022/02/07 13:40:03;;;;;;;7.82;1.33;;;;;;;11.77;53.59;102537.31;4970813;28;123850;-80
2022/02/07 13:42:47;;;;;;;7.03;1.40;;;;;;;11.80;53.52;102526.59;4970187;28;119033;-81
2022/02/07 13:45:22;;;;;;;6.68;1.30;;;;;;;11.79;52.68;102538.16;4970160;28;118822;-80
2022/02/07 13:47:52;;;;;;;4.38;0.88;;;;;;;11.75;52.60;102544.41;4953271;28;124749;-80
2022/02/07 13:50:25;;;;;;;6.15;1.10;;;;;;;11.71;52.60;102532.13;4971591;28;122875;-80
2022/02/07 13:52:57;;;;;;;4.45;1.08;;;;;;;11.66;52.58;102536.69;4969048;28;120123;-81
2022/02/07 13:55:36;;;;;;;8.32;1.20;;;;;;;11.62;52.33;102521.72;4970033;28;119559;-80
2022/02/07 13:58:09;;;;;;;8.70;1.27;;;;;;;11.59;52.39;102529.75;4971487;28;124140;-80
2022/02/07 14:00:47;;;;;;;7.95;1.25;;;;;;;11.58;52.62;102520.03;4970181;28;124142;-81
2022/02/07 14:03:31;;;;;;;5.72;1.08;;;;;;;11.59;52.55;102524.44;4969597;28;119095;-80
2022/02/07 14:06:06;;;;;;;4.55;1.05;;;;;;;11.63;52.58;102528.78;4971174;28;118012;-80
2022/02/07 14:08:45;;;;;;;7.85;1.00;;;;;;;11.68;52.79;102521.59;4973612;28;124568;-80
2022/02/07 14:11:16;;;;;;;4.95;1.20;;;;;;;11.75;52.71;102523.19;4973438;28;123170;-80